Time;durP1;ratioP1;P1;durP2;ratioP2;P2;SDS_P1;SDS_P2;PMS_P1;PMS_P2;Temp;Humidity;BMP_temperature;BMP_pressure;BME280_temperature;BME280_humidity;BME280_pressure;Samples;Min_cycle;Max_cycle;Signal;HPM_P1;HPM_P2
2022/06/24 00:02:00;;;;;;;2.80;2.10;;;26.30;99.90;;;;;;4161800;28;20212;-75
2022/06/24 00:04:03;;;;;;;4.57;2.20;;;26.30;99.90;;;;;;4160830;28;20286;-75
2022/06/24 00:06:12;;;;;;;3.72;2.08;;;26.30;99.90;;;;;;4161072;28;20228;-75
2022/06/24 00:08:15;;;;;;;3.65;2.33;;;26.30;99.90;;;;;;4161337;28;20243;-75
2022/06/24 00:10:20;;;;;;;4.43;2.40;;;26.30;99.90;;;;;;4161890;28;20282;-75
2022/06/24 00:12:26;;;;;;;3.67;2.20;;;26.30;99.90;;;;;;4161663;28;20622;-76
2022/06/24 00:14:28;;;;;;;3.85;2.33;;;26.30;99.90;;;;;;4159789;28;20220;-75
2022/06/24 00:16:30;;;;;;;2.83;2.20;;;26.30;99.90;;;;;;4162071;28;20576;-75
2022/06/24 00:18:33;;;;;;;3.00;2.45;;;26.30;99.90;;;;;;4160576;28;20288;-75
2022/06/24 00:20:42;;;;;;;4.10;2.40;;;26.20;99.90;;;;;;4160507;28;20254;-74
2022/06/24 00:22:47;;;;;;;3.17;2.13;;;26.20;99.90;;;;;;4161858;28;20212;-74
2022/06/24 00:24:49;;;;;;;4.80;2.45;;;26.20;99.90;;;;;;4159897;28;20320;-74
2022/06/24 00:26:52;;;;;;;3.70;2.40;;;26.20;99.90;;;;;;4163348;28;20216;-74
2022/06/24 00:29:02;;;;;;;4.28;2.38;;;26.20;99.90;;;;;;4160850;28;20224;-73
2022/06/24 00:31:07;;;;;;;3.53;2.50;;;26.20;99.90;;;;;;4159580;28;20266;-74
2022/06/24 00:33:12;;;;;;;3.42;2.20;;;26.20;99.90;;;;;;4158983;28;20559;-74
2022/06/24 00:35:17;;;;;;;2.53;1.98;;;26.20;99.90;;;;;;4158207;28;20247;-73
2022/06/24 00:37:24;;;;;;;3.75;2.42;;;26.20;99.90;;;;;;4158850;28;20228;-74
2022/06/24 00:39:34;;;;;;;4.78;2.60;;;26.20;99.90;;;;;;4157738;28;20227;-74
2022/06/24 00:41:36;;;;;;;2.78;2.17;;;26.20;99.90;;;;;;4160331;28;20282;-73
2022/06/24 00:43:41;;;;;;;3.25;2.20;;;26.20;99.90;;;;;;4157364;28;20220;-74
2022/06/24 00:45:49;;;;;;;2.85;2.25;;;26.20;99.90;;;;;;4160853;28;20212;-74
2022/06/24 00:47:52;;;;;;;3.53;2.20;;;26.20;99.90;;;;;;4164561;28;20208;-74
2022/06/24 00:49:57;;;;;;;4.38;2.50;;;26.20;99.90;;;;;;4159129;28;20665;-74
2022/06/24 00:52:07;;;;;;;4.03;2.15;;;26.20;99.90;;;;;;4160522;28;20216;-74
2022/06/24 00:54:12;;;;;;;4.80;2.42;;;26.10;99.90;;;;;;4158932;28;20269;-74
2022/06/24 00:56:17;;;;;;;3.75;2.35;;;26.20;99.90;;;;;;4159479;28;20282;-74
2022/06/24 00:58:19;;;;;;;3.47;2.22;;;26.20;99.90;;;;;;4160996;28;20214;-74
2022/06/24 01:00:26;;;;;;;2.60;2.15;;;26.20;99.90;;;;;;4159676;28;20208;-74
2022/06/24 01:02:30;;;;;;;2.58;2.22;;;26.20;99.90;;;;;;4155560;28;20286;-74
2022/06/24 01:04:34;;;;;;;3.28;2.35;;;26.10;99.90;;;;;;4159539;28;20219;-74
2022/06/24 01:06:39;;;;;;;4.20;2.58;;;26.10;99.90;;;;;;4158350;28;20663;-74
2022/06/24 01:08:41;;;;;;;3.90;2.30;;;26.10;99.90;;;;;;4159830;28;20233;-74
2022/06/24 01:10:49;;;;;;;2.83;2.08;;;26.10;99.90;;;;;;4159639;28;20274;-74
2022/06/24 01:12:52;;;;;;;3.15;2.40;;;26.10;99.90;;;;;;4161710;28;20234;-74
2022/06/24 01:14:54;;;;;;;3.42;2.25;;;26.10;99.90;;;;;;4159989;28;20231;-74
2022/06/24 01:16:56;;;;;;;3.50;2.30;;;26.10;99.90;;;;;;4160338;28;20258;-74
2022/06/24 01:19:02;;;;;;;4.63;2.58;;;26.10;99.90;;;;;;4161407;28;20313;-73
2022/06/24 01:21:04;;;;;;;3.63;2.40;;;26.10;99.90;;;;;;4157692;28;20298;-74
2022/06/24 01:23:08;;;;;;;4.60;2.25;;;26.10;99.90;;;;;;4157572;28;20232;-74
2022/06/24 01:25:12;;;;;;;2.90;2.20;;;26.10;99.90;;;;;;4159971;28;20220;-73
2022/06/24 01:27:14;;;;;;;3.03;2.10;;;26.10;99.90;;;;;;4160306;28;20631;-73
2022/06/24 01:29:17;;;;;;;2.78;2.08;;;26.00;99.90;;;;;;4160183;28;20224;-74
2022/06/24 01:31:19;;;;;;;4.63;2.42;;;26.10;99.90;;;;;;4159606;28;20224;-73
2022/06/24 01:33:22;;;;;;;2.65;2.17;;;26.00;99.90;;;;;;4160372;28;20558;-74
2022/06/24 01:35:24;;;;;;;3.40;2.40;;;26.00;99.90;;;;;;4159872;28;20228;-73
2022/06/24 01:37:26;;;;;;;3.40;2.20;;;26.00;99.90;;;;;;4157241;28;20275;-74
2022/06/24 01:39:31;;;;;;;3.75;2.50;;;26.00;99.90;;;;;;4159342;28;20225;-74
2022/06/24 01:41:33;;;;;;;5.00;2.20;;;26.00;99.90;;;;;;4158243;28;20335;-74
2022/06/24 01:43:36;;;;;;;3.28;2.40;;;26.00;99.90;;;;;;4159967;28;20223;-74
2022/06/24 01:45:38;;;;;;;3.15;2.20;;;26.00;99.90;;;;;;4161056;28;20266;-74
2022/06/24 01:47:40;;;;;;;3.55;2.45;;;26.00;99.90;;;;;;4161610;28;20243;-74
2022/06/24 01:49:43;;;;;;;2.38;2.08;;;26.00;99.90;;;;;;4161814;28;20265;-74
2022/06/24 01:51:48;;;;;;;3.33;2.22;;;26.00;99.90;;;;;;4160529;28;20244;-73
2022/06/24 01:53:50;;;;;;;3.10;2.17;;;26.00;99.90;;;;;;4157909;28;20224;-74
2022/06/24 01:55:54;;;;;;;3.75;2.50;;;26.00;99.90;;;;;;4160412;28;20208;-74
2022/06/24 01:57:56;;;;;;;3.72;2.40;;;26.00;99.90;;;;;;4158393;28;20671;-74
2022/06/24 02:00:00;;;;;;;3.33;2.40;;;26.00;99.90;;;;;;4160165;28;20258;-74
2022/06/24 02:02:02;;;;;;;6.15;2.70;;;26.00;99.90;;;;;;4157397;28;20241;-74
2022/06/24 02:04:04;;;;;;;3.88;2.10;;;26.00;99.90;;;;;;4157606;28;20231;-73
2022/06/24 02:06:08;;;;;;;2.88;2.45;;;26.00;99.90;;;;;;4163665;28;20220;-73
2022/06/24 02:08:10;;;;;;;3.13;2.40;;;26.00;99.90;;;;;;4164182;28;20718;-74
2022/06/24 02:14:54;;;;;;;2.53;2.33;;;26.00;99.90;;;;;;4161681;28;20209;-74
2022/06/24 02:16:56;;;;;;;3.08;2.55;;;25.90;99.90;;;;;;4162104;28;20224;-74
2022/06/24 02:18:59;;;;;;;4.15;2.60;;;25.90;99.90;;;;;;4165570;28;20579;-74
2022/06/24 02:21:02;;;;;;;3.55;2.25;;;25.90;99.90;;;;;;4163102;28;20301;-74
2022/06/24 02:23:05;;;;;;;2.28;2.03;;;25.90;99.90;;;;;;4163178;28;20225;-73
2022/06/24 02:25:08;;;;;;;2.50;2.10;;;25.90;99.90;;;;;;4164476;28;20247;-74
2022/06/24 02:27:10;;;;;;;3.40;2.50;;;25.90;99.90;;;;;;4161804;28;21559;-73
2022/06/24 02:29:14;;;;;;;3.78;2.22;;;25.90;99.90;;;;;;4163703;28;20547;-74
2022/06/24 02:31:17;;;;;;;3.50;2.20;;;25.90;99.90;;;;;;4162554;28;20228;-74
2022/06/24 02:33:19;;;;;;;4.43;2.50;;;25.90;99.90;;;;;;4161437;28;20224;-74
2022/06/24 02:35:22;;;;;;;4.68;2.80;;;25.90;99.90;;;;;;4163999;28;20247;-73
2022/06/24 02:37:24;;;;;;;3.22;2.45;;;25.90;99.90;;;;;;4163725;28;20224;-74
2022/06/24 02:39:26;;;;;;;6.05;2.60;;;25.90;99.90;;;;;;4163007;28;20683;-74
2022/06/24 02:41:29;;;;;;;5.03;2.60;;;25.90;99.90;;;;;;4163911;28;20310;-74
2022/06/24 02:43:33;;;;;;;3.67;2.30;;;25.90;99.90;;;;;;4160965;28;20220;-74
2022/06/24 02:45:37;;;;;;;3.22;2.17;;;25.90;99.90;;;;;;4159848;28;20216;-73
2022/06/24 02:47:40;;;;;;;4.18;2.78;;;25.90;99.90;;;;;;4159773;28;20624;-74
2022/06/24 02:49:42;;;;;;;3.80;2.58;;;25.90;99.90;;;;;;4160927;28;20517;-74
2022/06/24 02:51:44;;;;;;;2.55;2.20;;;25.90;99.90;;;;;;4158162;28;20551;-74
2022/06/24 02:53:46;;;;;;;4.10;2.63;;;25.90;99.90;;;;;;4161174;28;20221;-74
2022/06/24 02:55:50;;;;;;;3.97;2.13;;;25.90;99.90;;;;;;4162705;28;20278;-74
2022/06/24 02:57:53;;;;;;;4.28;2.35;;;25.90;99.90;;;;;;4162189;28;20213;-74
2022/06/24 02:59:55;;;;;;;4.20;2.58;;;25.90;99.90;;;;;;4159968;28;20363;-74
2022/06/24 03:01:59;;;;;;;2.33;1.95;;;25.80;99.90;;;;;;4160575;28;20282;-73
2022/06/24 03:04:01;;;;;;;2.90;2.60;;;25.80;99.90;;;;;;4160429;28;20319;-73
2022/06/24 03:06:05;;;;;;;3.75;2.20;;;25.80;99.90;;;;;;4159774;28;20225;-73
2022/06/24 03:08:08;;;;;;;2.60;2.40;;;25.80;99.90;;;;;;4160133;28;20680;-73
2022/06/24 03:10:10;;;;;;;4.45;2.90;;;25.90;99.90;;;;;;4162983;28;20282;-73
2022/06/24 03:12:13;;;;;;;2.40;2.20;;;25.80;99.90;;;;;;4161673;28;20220;-73
2022/06/24 03:14:15;;;;;;;3.92;2.72;;;25.80;99.90;;;;;;4162005;28;20708;-73
2022/06/24 03:16:18;;;;;;;3.63;2.45;;;25.90;99.90;;;;;;4160954;28;20228;-73
2022/06/24 03:18:23;;;;;;;5.40;2.50;;;25.80;99.90;;;;;;4160818;28;20221;-74
2022/06/24 03:20:26;;;;;;;2.35;1.90;;;25.80;99.90;;;;;;4161499;28;20224;-73
2022/06/24 03:22:28;;;;;;;2.50;2.30;;;25.80;99.90;;;;;;4160024;28;20240;-73
2022/06/24 03:24:30;;;;;;;3.47;2.53;;;25.80;99.90;;;;;;4159221;28;20221;-73
2022/06/24 03:26:32;;;;;;;2.78;2.45;;;25.80;99.90;;;;;;4164486;28;20228;-73
2022/06/24 03:28:35;;;;;;;3.22;2.40;;;25.80;99.90;;;;;;4162345;28;20266;-73
2022/06/24 03:30:37;;;;;;;3.25;2.40;;;25.80;99.90;;;;;;4162815;28;20269;-73
2022/06/24 03:32:40;;;;;;;3.90;2.15;;;25.80;99.90;;;;;;4160878;28;20208;-73
2022/06/24 03:34:44;;;;;;;3.03;2.30;;;25.80;99.90;;;;;;4158131;28;20335;-74
2022/06/24 03:36:46;;;;;;;3.63;2.38;;;25.80;99.90;;;;;;4163514;28;20209;-73
2022/06/24 03:38:48;;;;;;;3.00;2.30;;;25.80;99.90;;;;;;4158849;28;20216;-73
2022/06/24 03:40:51;;;;;;;3.42;2.60;;;25.80;99.90;;;;;;4162103;28;20220;-74
2022/06/24 03:42:53;;;;;;;4.00;2.55;;;25.80;99.90;;;;;;4157516;28;20244;-73
2022/06/24 03:44:56;;;;;;;2.65;2.40;;;25.80;99.90;;;;;;4161079;28;20224;-73
2022/06/24 03:46:58;;;;;;;3.63;2.47;;;25.80;99.90;;;;;;4161813;28;20290;-73
2022/06/24 03:49:01;;;;;;;3.78;2.60;;;25.70;99.90;;;;;;4160257;28;20220;-73
2022/06/24 03:51:04;;;;;;;4.55;2.40;;;25.70;99.90;;;;;;4161027;28;20286;-73
2022/06/24 03:53:07;;;;;;;3.90;2.50;;;25.80;99.90;;;;;;4161704;28;20566;-73
2022/06/24 03:55:10;;;;;;;4.05;3.05;;;25.80;99.90;;;;;;4161480;28;20239;-73
2022/06/24 03:57:12;;;;;;;3.67;2.42;;;25.70;99.90;;;;;;4160277;28;20258;-73
2022/06/24 03:59:14;;;;;;;3.83;2.80;;;25.70;99.90;;;;;;4159096;28;20258;-73
2022/06/24 04:01:17;;;;;;;3.92;2.47;;;25.70;99.90;;;;;;4160055;28;20220;-73
2022/06/24 04:03:19;;;;;;;3.15;2.35;;;25.80;99.90;;;;;;4160681;28;20302;-73
2022/06/24 04:05:21;;;;;;;3.97;2.78;;;25.70;99.90;;;;;;4161664;28;20648;-73
2022/06/24 04:07:25;;;;;;;3.20;2.47;;;25.70;99.90;;;;;;4161224;28;20791;-74
2022/06/24 04:09:27;;;;;;;2.80;2.55;;;25.70;99.90;;;;;;4158132;28;20247;-73
2022/06/24 04:11:30;;;;;;;3.67;2.90;;;25.70;99.90;;;;;;4161632;28;20221;-73
2022/06/24 04:13:32;;;;;;;3.42;2.83;;;25.70;99.90;;;;;;4161938;28;20213;-73
2022/06/24 04:15:34;;;;;;;5.50;2.83;;;25.70;99.90;;;;;;4159688;28;20251;-73
2022/06/24 04:17:36;;;;;;;3.75;2.25;;;25.70;99.90;;;;;;4161846;28;20273;-74
2022/06/24 04:19:39;;;;;;;3.85;2.50;;;25.70;99.90;;;;;;4159132;28;20229;-73
2022/06/24 04:21:41;;;;;;;2.53;2.33;;;25.70;99.90;;;;;;4160063;28;20747;-73
2022/06/24 04:23:49;;;;;;;3.83;2.63;;;25.70;99.90;;;;;;4160079;28;20228;-74
2022/06/24 04:25:51;;;;;;;4.03;2.88;;;25.70;99.90;;;;;;4158292;28;20273;-74
2022/06/24 04:27:53;;;;;;;4.05;2.65;;;25.70;99.90;;;;;;4159492;28;20225;-73
2022/06/24 04:29:59;;;;;;;2.85;2.65;;;25.70;99.90;;;;;;4159166;28;20254;-74
2022/06/24 04:32:02;;;;;;;3.53;2.55;;;25.70;99.90;;;;;;4159580;28;20644;-74
2022/06/24 04:34:04;;;;;;;4.10;2.53;;;25.70;99.90;;;;;;4160040;28;20220;-74
2022/06/24 04:36:12;;;;;;;3.00;2.45;;;25.70;99.90;;;;;;4159510;28;20216;-73
2022/06/24 04:38:14;;;;;;;3.65;2.50;;;25.70;99.90;;;;;;4157085;28;20224;-73
2022/06/24 04:40:18;;;;;;;3.88;2.58;;;25.60;99.90;;;;;;4160515;28;20282;-74
2022/06/24 04:42:20;;;;;;;3.65;2.75;;;25.70;99.90;;;;;;4157791;28;20224;-73
2022/06/24 04:44:23;;;;;;;4.07;2.60;;;25.70;99.90;;;;;;4159322;28;20220;-73
2022/06/24 04:46:25;;;;;;;2.88;2.58;;;25.60;99.90;;;;;;4159703;28;21636;-73
2022/06/24 04:48:27;;;;;;;3.60;2.60;;;25.70;99.90;;;;;;4159149;28;20215;-73
2022/06/24 04:50:30;;;;;;;4.25;2.67;;;25.60;99.90;;;;;;4158478;28;20267;-74
2022/06/24 04:52:33;;;;;;;4.65;2.60;;;25.60;99.90;;;;;;4160734;28;20221;-74
2022/06/24 04:54:35;;;;;;;2.72;2.35;;;25.60;99.90;;;;;;4161098;28;20315;-73
2022/06/24 04:56:39;;;;;;;3.65;2.60;;;25.60;99.90;;;;;;4159903;28;20220;-74
2022/06/24 04:58:41;;;;;;;3.58;2.42;;;25.60;99.90;;;;;;4159268;28;20214;-73
2022/06/24 05:00:43;;;;;;;4.65;2.67;;;25.60;99.90;;;;;;4161308;28;20272;-73
2022/06/24 05:02:46;;;;;;;2.70;2.50;;;25.70;99.90;;;;;;4159872;28;20243;-73
2022/06/24 05:04:48;;;;;;;2.63;2.40;;;25.60;99.90;;;;;;4155843;28;20354;-74
2022/06/24 05:06:51;;;;;;;3.15;2.50;;;25.60;99.90;;;;;;4158908;28;20278;-73
2022/06/24 05:08:53;;;;;;;3.22;2.50;;;25.60;99.90;;;;;;4161483;28;20213;-73
2022/06/24 05:10:55;;;;;;;3.72;2.70;;;25.60;99.90;;;;;;4162006;28;20221;-73
2022/06/24 05:12:59;;;;;;;3.38;2.70;;;25.60;99.90;;;;;;4159469;28;20270;-73
2022/06/24 05:15:01;;;;;;;3.10;2.58;;;25.60;99.90;;;;;;4159732;28;20232;-73
2022/06/24 05:17:04;;;;;;;4.35;2.70;;;25.60;99.90;;;;;;4158689;28;20216;-73
2022/06/24 05:19:06;;;;;;;3.83;2.35;;;25.60;99.90;;;;;;4159199;28;20633;-73
2022/06/24 05:21:08;;;;;;;3.78;2.40;;;25.60;99.90;;;;;;4158081;28;20266;-73
2022/06/24 05:23:12;;;;;;;2.60;2.28;;;25.50;99.90;;;;;;4158773;28;20248;-73
2022/06/24 05:25:14;;;;;;;3.35;2.30;;;25.60;99.90;;;;;;4160061;28;20224;-74
2022/06/24 05:27:16;;;;;;;3.53;2.63;;;25.60;99.90;;;;;;4160725;28;20220;-73
2022/06/24 05:29:20;;;;;;;3.55;2.40;;;25.60;99.90;;;;;;4160110;28;20235;-73
2022/06/24 05:31:23;;;;;;;3.97;2.85;;;25.60;99.90;;;;;;4155750;28;20274;-73
2022/06/24 05:33:26;;;;;;;3.20;2.50;;;25.60;99.90;;;;;;4158787;28;20220;-73
2022/06/24 05:35:28;;;;;;;3.97;2.72;;;25.50;99.90;;;;;;4159365;28;20270;-73
2022/06/24 05:37:30;;;;;;;2.88;2.58;;;25.50;99.90;;;;;;4159258;28;20267;-73
2022/06/24 05:39:32;;;;;;;2.95;2.47;;;25.50;99.90;;;;;;4156284;28;20270;-73
2022/06/24 05:41:38;;;;;;;3.25;2.53;;;25.50;99.90;;;;;;4157600;28;20270;-74
2022/06/24 05:43:41;;;;;;;3.45;2.28;;;25.60;99.90;;;;;;4158793;28;20306;-74
2022/06/24 05:45:45;;;;;;;3.67;2.70;;;25.50;99.90;;;;;;4159453;28;20628;-74
2022/06/24 05:47:47;;;;;;;4.03;2.45;;;25.50;99.90;;;;;;4161085;28;20267;-74
2022/06/24 05:49:49;;;;;;;3.67;3.00;;;25.50;99.90;;;;;;4161097;28;20212;-73
2022/06/24 05:51:51;;;;;;;3.00;2.42;;;25.50;99.90;;;;;;4161209;28;20254;-73
2022/06/24 05:56:14;;;;;;;3.35;2.45;;;25.50;99.90;;;;;;4157748;28;20626;-73
2022/06/24 05:58:16;;;;;;;4.05;2.90;;;25.60;99.90;;;;;;4160870;28;20282;-73
2022/06/24 06:00:19;;;;;;;3.17;2.63;;;25.50;99.90;;;;;;4158830;28;20228;-74
2022/06/24 06:02:23;;;;;;;2.95;2.28;;;25.60;99.90;;;;;;4158315;28;21037;-73
2022/06/24 06:04:25;;;;;;;3.60;2.75;;;25.60;99.90;;;;;;4157836;28;20244;-74
2022/06/24 06:06:28;;;;;;;3.92;3.05;;;25.60;99.90;;;;;;4157171;28;20221;-74
2022/06/24 06:08:30;;;;;;;3.15;2.35;;;25.60;99.90;;;;;;4161327;28;20243;-74
2022/06/24 06:10:35;;;;;;;3.60;2.75;;;25.60;99.90;;;;;;4160683;28;20773;-73
2022/06/24 06:12:37;;;;;;;4.82;2.63;;;25.60;99.90;;;;;;4156203;28;20216;-74
2022/06/24 06:14:40;;;;;;;3.13;2.83;;;25.60;99.90;;;;;;4158859;28;20571;-73
2022/06/24 06:16:43;;;;;;;5.95;2.60;;;25.60;99.90;;;;;;4158659;28;20262;-73
2022/06/24 06:18:48;;;;;;;5.32;2.88;;;25.60;99.90;;;;;;4159645;28;20661;-74
2022/06/24 06:20:50;;;;;;;3.65;2.70;;;25.60;99.90;;;;;;4157197;28;20216;-73
2022/06/24 06:22:53;;;;;;;2.95;2.65;;;25.60;99.90;;;;;;4157000;28;20224;-74
2022/06/24 06:24:55;;;;;;;3.47;2.97;;;25.60;99.90;;;;;;4159544;28;20290;-74
2022/06/24 06:26:58;;;;;;;3.00;2.70;;;25.60;99.90;;;;;;4154470;28;20228;-74
2022/06/24 06:29:01;;;;;;;4.63;2.70;;;25.60;99.90;;;;;;4160253;28;20216;-74
2022/06/24 06:31:04;;;;;;;2.97;2.35;;;25.60;99.90;;;;;;4156637;28;20730;-74
2022/06/24 06:33:07;;;;;;;4.15;2.60;;;25.60;99.90;;;;;;4157758;28;20727;-74
2022/06/24 06:35:10;;;;;;;3.42;2.50;;;25.60;99.90;;;;;;4158315;28;20221;-74
2022/06/24 06:37:13;;;;;;;4.90;2.65;;;25.60;99.90;;;;;;4156803;28;20634;-74
2022/06/24 06:39:15;;;;;;;2.63;2.42;;;25.60;99.90;;;;;;4158325;28;20666;-73
2022/06/24 06:41:18;;;;;;;4.57;2.80;;;25.60;99.90;;;;;;4160262;28;20640;-73
2022/06/24 06:43:20;;;;;;;3.58;2.67;;;25.60;99.90;;;;;;4157616;28;20220;-74
2022/06/24 06:45:23;;;;;;;4.20;2.60;;;25.60;99.90;;;;;;4160085;28;20244;-73
2022/06/24 06:47:25;;;;;;;4.40;2.90;;;25.60;99.90;;;;;;4155926;28;20217;-74
2022/06/24 06:49:27;;;;;;;5.18;2.67;;;25.60;99.90;;;;;;4158027;28;20221;-74
2022/06/24 06:51:31;;;;;;;3.08;2.78;;;25.60;99.90;;;;;;4162670;28;20212;-74
2022/06/24 06:53:33;;;;;;;3.58;2.70;;;25.60;99.90;;;;;;4161138;28;20262;-74
2022/06/24 06:55:35;;;;;;;3.28;2.70;;;25.60;99.90;;;;;;4163428;28;20220;-74
2022/06/24 06:57:38;;;;;;;7.13;4.60;;;25.60;99.90;;;;;;4159645;28;20607;-74
2022/06/24 06:59:40;;;;;;;5.93;4.40;;;25.00;99.90;;;;;;4160810;28;20270;-74
2022/06/24 07:01:42;;;;;;;6.00;4.68;;;24.30;99.90;;;;;;4162155;28;20251;-73
2022/06/24 07:03:45;;;;;;;6.82;4.38;;;23.80;99.90;;;;;;4159556;28;20221;-74
2022/06/24 07:05:48;;;;;;;5.32;3.97;;;23.60;99.90;;;;;;4151321;28;20935;-73
2022/06/24 07:07:51;;;;;;;4.88;3.78;;;23.40;99.90;;;;;;4153660;28;20237;-73
2022/06/24 07:09:54;;;;;;;6.15;4.10;;;23.10;99.90;;;;;;4160570;28;20216;-74
2022/06/24 07:11:56;;;;;;;5.30;3.63;;;23.00;99.90;;;;;;4161116;28;20652;-73
2022/06/24 07:13:59;;;;;;;6.72;4.25;;;22.90;99.90;;;;;;4162890;28;20220;-74
2022/06/24 07:16:01;;;;;;;5.43;4.07;;;22.90;99.90;;;;;;4155674;28;20213;-73
2022/06/24 07:18:04;;;;;;;7.63;4.40;;;23.00;99.90;;;;;;4153031;28;20218;-74
2022/06/24 07:20:07;;;;;;;6.78;4.40;;;23.00;99.90;;;;;;4154785;28;20221;-73
2022/06/24 07:22:10;;;;;;;5.72;4.43;;;23.00;99.90;;;;;;4151412;28;20221;-74
2022/06/24 07:24:13;;;;;;;6.90;4.50;;;23.00;99.90;;;;;;4158648;28;20240;-73
2022/06/24 07:26:16;;;;;;;5.43;4.22;;;23.00;99.90;;;;;;4156745;28;20259;-73
2022/06/24 07:28:19;;;;;;;6.45;3.95;;;23.00;99.90;;;;;;4145222;28;20217;-73
2022/06/24 07:30:21;;;;;;;6.07;3.97;;;23.00;99.90;;;;;;4150963;28;20661;-74
2022/06/24 07:32:23;;;;;;;5.63;4.32;;;22.80;99.90;;;;;;4158969;28;20220;-74
2022/06/24 07:34:26;;;;;;;5.03;4.20;;;22.80;99.90;;;;;;4154808;28;20268;-74
2022/06/24 07:36:28;;;;;;;5.97;4.00;;;22.70;99.90;;;;;;4149654;28;20221;-72
2022/06/24 07:38:31;;;;;;;6.25;5.35;;;22.80;99.90;;;;;;4156681;28;20738;-72
2022/06/24 07:40:34;;;;;;;7.65;4.68;;;22.90;99.90;;;;;;4150446;28;20222;-73
2022/06/24 07:42:37;;;;;;;6.22;4.53;;;22.80;99.90;;;;;;4155782;28;20221;-74
2022/06/24 07:44:42;;;;;;;7.20;5.43;;;22.90;99.90;;;;;;4148432;28;20232;-73
2022/06/24 07:46:45;;;;;;;6.43;4.88;;;22.90;99.90;;;;;;4151544;28;20279;-72
2022/06/24 07:48:47;;;;;;;7.63;5.15;;;22.90;99.90;;;;;;4148461;28;20944;-72
2022/06/24 07:50:49;;;;;;;5.55;5.05;;;22.70;99.90;;;;;;4153938;28;20344;-73
2022/06/24 07:52:52;;;;;;;6.32;5.15;;;22.70;99.90;;;;;;4152381;28;20719;-72
2022/06/24 07:56:56;;;;;;;10.07;5.38;;;22.70;99.90;;;;;;4151262;28;20632;-71
2022/06/24 07:57:17;;;;;;;10.15;5.60;;;22.70;99.90;;;;;;4150305;28;20279;-71
2022/06/24 07:59:19;;;;;;;7.78;4.35;;;22.70;99.90;;;;;;4157802;28;20340;-73
2022/06/24 08:01:22;;;;;;;6.38;3.35;;;22.60;99.90;;;;;;4150302;28;20224;-74
2022/06/24 08:03:24;;;;;;;4.53;2.20;;;22.50;99.90;;;;;;4150634;28;20870;-73
2022/06/24 08:05:26;;;;;;;2.72;2.30;;;22.10;99.90;;;;;;4151193;28;20232;-74
2022/06/24 08:07:28;;;;;;;4.00;1.80;;;22.10;99.90;;;;;;4153315;28;21171;-74
2022/06/24 08:09:32;;;;;;;2.47;1.40;;;22.00;99.90;;;;;;4149236;28;20216;-73
2022/06/24 08:11:36;;;;;;;3.72;1.30;;;21.90;99.90;;;;;;4154307;28;20212;-73
2022/06/24 08:13:40;;;;;;;3.88;1.27;;;21.90;99.90;;;;;;4152582;28;21265;-73
2022/06/24 08:15:42;;;;;;;2.10;1.10;;;21.90;99.90;;;;;;4149897;28;20213;-73
2022/06/24 08:17:45;;;;;;;2.88;1.13;;;21.80;99.90;;;;;;4154084;28;20219;-72
2022/06/24 08:19:47;;;;;;;2.35;1.05;;;21.60;99.90;;;;;;4146049;28;20290;-71
2022/06/24 08:21:50;;;;;;;4.03;1.20;;;21.60;99.90;;;;;;4153027;28;20260;-72
2022/06/24 08:23:52;;;;;;;2.45;1.80;;;21.50;99.90;;;;;;4154296;28;20262;-74
2022/06/24 08:25:57;;;;;;;4.70;1.40;;;21.50;99.90;;;;;;4153419;28;20315;-74
2022/06/24 08:27:59;;;;;;;3.47;1.20;;;21.20;99.90;;;;;;4150188;28;20216;-74
2022/06/24 08:30:04;;;;;;;2.55;1.10;;;21.10;99.90;;;;;;4144458;28;20275;-74
2022/06/24 08:32:07;;;;;;;2.55;0.90;;;21.10;99.90;;;;;;4152872;28;20283;-74
2022/06/24 08:34:09;;;;;;;2.58;0.75;;;21.00;99.90;;;;;;4153400;28;20267;-76
2022/06/24 08:36:12;;;;;;;4.47;0.90;;;21.00;99.90;;;;;;4156389;28;20274;-73
2022/06/24 08:38:15;;;;;;;2.38;1.23;;;20.80;99.90;;;;;;4155525;28;20225;-73
2022/06/24 08:40:19;;;;;;;3.60;1.15;;;20.80;99.90;;;;;;4151991;28;20375;-72
2022/06/24 08:42:28;;;;;;;4.85;1.38;;;20.80;99.90;;;;;;4153194;28;20263;-73
2022/06/24 08:44:30;;;;;;;4.53;3.22;;;20.80;99.90;;;;;;4153925;28;20728;-73
2022/06/24 08:46:33;;;;;;;6.03;2.10;;;20.80;99.90;;;;;;4150577;28;20212;-73
2022/06/24 08:48:49;;;;;;;3.83;1.80;;;20.80;99.90;;;;;;4155781;28;20809;-73
2022/06/24 08:50:52;;;;;;;3.22;2.00;;;20.70;99.90;;;;;;4159141;28;20216;-72
2022/06/24 08:52:55;;;;;;;2.50;1.40;;;20.70;99.90;;;;;;4155429;28;20228;-73
2022/06/24 08:55:00;;;;;;;3.97;2.40;;;20.40;99.90;;;;;;4154821;28;20258;-73
2022/06/24 08:57:03;;;;;;;4.57;2.25;;;20.50;99.90;;;;;;4153252;28;20975;-73
2022/06/24 08:59:05;;;;;;;4.78;1.50;;;20.50;99.90;;;;;;4155324;28;20698;-73
2022/06/24 09:01:07;;;;;;;1.65;1.15;;;20.40;99.90;;;;;;4145569;28;20750;-74
2022/06/24 09:03:12;;;;;;;2.40;1.10;;;20.50;99.90;;;;;;4150632;28;20290;-73
2022/06/24 09:05:16;;;;;;;2.42;1.13;;;20.50;99.90;;;;;;4154782;28;20282;-74
2022/06/24 09:07:24;;;;;;;5.18;2.70;;;20.50;99.90;;;;;;4149683;28;20240;-72
2022/06/24 09:09:28;;;;;;;3.65;1.42;;;20.60;99.90;;;;;;4146572;28;20212;-73
2022/06/24 09:11:36;;;;;;;3.35;1.73;;;20.50;99.90;;;;;;4154427;28;20220;-73
2022/06/24 09:13:43;;;;;;;5.18;1.80;;;20.70;99.90;;;;;;4157131;28;20293;-73
2022/06/24 09:15:51;;;;;;;3.22;1.80;;;20.50;99.90;;;;;;4150301;28;20216;-72
2022/06/24 09:17:55;;;;;;;5.82;2.00;;;20.60;99.90;;;;;;4152668;28;20361;-73
2022/06/24 09:20:07;;;;;;;6.35;2.72;;;20.60;99.90;;;;;;4152865;28;20588;-73
2022/06/24 09:22:10;;;;;;;3.17;1.45;;;20.70;99.90;;;;;;4151081;28;20263;-72
2022/06/24 09:24:15;;;;;;;1.85;1.40;;;20.70;99.90;;;;;;4153225;28;20262;-74
2022/06/24 09:26:29;;;;;;;2.92;1.48;;;20.70;99.90;;;;;;4156372;28;21739;-74
2022/06/24 09:28:34;;;;;;;2.03;1.35;;;20.70;99.90;;;;;;4158060;28;20308;-71
2022/06/24 09:30:37;;;;;;;3.47;1.20;;;20.70;99.90;;;;;;4155205;28;20604;-72
2022/06/24 09:32:50;;;;;;;2.10;1.27;;;20.70;99.90;;;;;;4153132;28;20220;-72
2022/06/24 09:35:03;;;;;;;2.70;1.70;;;20.80;99.90;;;;;;4150998;28;20216;-77
2022/06/24 09:37:07;;;;;;;4.30;1.80;;;20.80;99.90;;;;;;4151598;28;20353;-75
2022/06/24 09:39:12;;;;;;;4.90;2.10;;;20.80;99.90;;;;;;4154855;28;20212;-81
2022/06/24 09:41:14;;;;;;;4.43;2.22;;;20.70;99.90;;;;;;4152679;28;20618;-76
2022/06/24 09:43:16;;;;;;;8.13;3.28;;;20.90;99.90;;;;;;4159796;28;20583;-74
2022/06/24 09:45:19;;;;;;;5.00;2.90;;;20.90;99.90;;;;;;4153155;28;20266;-81
2022/06/24 09:47:25;;;;;;;6.03;4.22;;;20.90;99.90;;;;;;4154945;28;20217;-78
2022/06/24 09:49:27;;;;;;;6.50;3.83;;;21.00;99.90;;;;;;4154826;28;20220;-79
2022/06/24 09:51:30;;;;;;;5.53;2.50;;;20.90;99.90;;;;;;4154400;28;20274;-77
2022/06/24 09:53:36;;;;;;;4.47;1.98;;;21.00;99.90;;;;;;4154785;28;20278;-79
2022/06/24 09:55:39;;;;;;;4.25;2.13;;;21.00;99.90;;;;;;4154894;28;20267;-76
2022/06/24 09:57:42;;;;;;;5.00;1.85;;;21.20;99.90;;;;;;4155875;28;20262;-76
2022/06/24 10:02:18;;;;;;;5.47;2.72;;;21.20;99.90;;;;;;4087480;28;20246;-77
2022/06/24 10:04:22;;;;;;;5.13;2.45;;;21.20;99.90;;;;;;4115821;28;20285;-76
2022/06/24 10:06:25;;;;;;;3.22;2.00;;;21.40;99.90;;;;;;4153296;28;20306;-77
2022/06/24 10:08:33;;;;;;;2.15;1.30;;;21.40;99.90;;;;;;4151753;28;20274;-77
2022/06/24 10:10:39;;;;;;;2.78;1.40;;;21.20;99.90;;;;;;4146671;28;20216;-77
2022/06/24 10:12:46;;;;;;;1.83;1.10;;;21.50;99.90;;;;;;4152705;28;20274;-77
2022/06/24 10:14:51;;;;;;;3.35;1.10;;;21.50;99.90;;;;;;4148913;28;20213;-80
2022/06/24 10:16:56;;;;;;;2.95;1.20;;;21.60;99.90;;;;;;4152434;28;20270;-77
2022/06/24 10:19:00;;;;;;;7.25;1.55;;;21.50;99.90;;;;;;4152722;28;20208;-76
2022/06/24 10:21:05;;;;;;;2.53;1.60;;;21.70;99.90;;;;;;4153721;28;20258;-75
2022/06/24 10:23:08;;;;;;;2.03;1.50;;;21.90;99.90;;;;;;4159197;28;20305;-76
2022/06/24 10:25:10;;;;;;;1.42;1.23;;;21.90;99.90;;;;;;4154360;28;20274;-77
2022/06/24 10:27:14;;;;;;;3.25;1.85;;;21.80;99.90;;;;;;4152612;28;20236;-76
2022/06/24 10:29:24;;;;;;;5.72;2.00;;;21.90;99.90;;;;;;4158420;28;20676;-77
2022/06/24 10:31:52;;;;;;;2.28;1.45;;;22.00;99.90;;;;;;4159131;28;20220;-77
2022/06/24 10:33:56;;;;;;;2.83;1.30;;;22.00;99.90;;;;;;4153191;28;20275;-77
2022/06/24 10:36:04;;;;;;;1.30;1.20;;;21.90;99.90;;;;;;4156758;28;20282;-75
2022/06/24 10:38:06;;;;;;;5.10;1.30;;;21.90;99.90;;;;;;4158924;28;20229;-75
2022/06/24 10:40:24;;;;;;;1.63;1.30;;;21.70;99.90;;;;;;4155364;28;20216;-75
2022/06/24 10:42:30;;;;;;;3.50;1.60;;;21.70;99.90;;;;;;4152067;28;20332;-75
2022/06/24 10:44:34;;;;;;;1.90;1.80;;;21.80;99.90;;;;;;4156207;28;20224;-79
2022/06/24 10:46:36;;;;;;;3.10;1.70;;;21.60;99.90;;;;;;4152885;28;20298;-76
2022/06/24 10:49:01;;;;;;;7.65;2.10;;;21.80;99.90;;;;;;4156759;28;20213;-81
2022/06/24 10:51:13;;;;;;;3.33;1.80;;;21.90;99.90;;;;;;4152496;28;20263;-78
2022/06/24 10:53:15;;;;;;;6.43;1.83;;;21.90;99.90;;;;;;4154521;28;20216;-76
2022/06/24 10:55:29;;;;;;;4.55;2.10;;;22.00;99.90;;;;;;4150668;28;20307;-77